createdAt,value
2022-12-26T00:02:20.713Z,10.20
2022-12-26T00:07:24.569Z,10.17
2022-12-26T00:12:28.326Z,9.70
2022-12-26T00:17:33.621Z,9.83
2022-12-26T00:22:37.283Z,10.40
2022-12-26T00:27:42.311Z,10.30
2022-12-26T00:32:47.408Z,11.03
2022-12-26T00:37:50.871Z,10.57
2022-12-26T00:42:55.609Z,10.77
2022-12-26T00:48:00.481Z,10.30
2022-12-26T00:53:03.932Z,9.50
2022-12-26T00:58:07.574Z,9.87
2022-12-26T01:03:13.653Z,10.17
2022-12-26T01:08:19.750Z,9.20
2022-12-26T01:13:25.672Z,9.23
2022-12-26T01:18:30.878Z,8.10
2022-12-26T01:23:34.360Z,8.77
2022-12-26T01:28:38.335Z,7.60
2022-12-26T01:33:43.182Z,9.10
2022-12-26T01:38:47.789Z,8.73
2022-12-26T01:43:57.225Z,9.10
2022-12-26T01:49:08.048Z,8.90
2022-12-26T01:54:37.337Z,9.00
2022-12-26T01:59:39.159Z,9.30
2022-12-26T02:05:05.768Z,8.47
2022-12-26T02:10:14.191Z,8.83
2022-12-26T02:15:18.882Z,8.33
2022-12-26T02:20:27.631Z,8.87
2022-12-26T02:26:17.828Z,8.83
2022-12-26T02:31:33.562Z,9.00
2022-12-26T02:37:04.463Z,7.77
2022-12-26T02:42:18.950Z,8.43
2022-12-26T02:47:34.861Z,9.33
2022-12-26T02:53:08.586Z,8.37
2022-12-26T02:58:37.813Z,8.33
2022-12-26T03:04:02.525Z,9.00
2022-12-26T03:09:26.559Z,7.87
2022-12-26T03:14:33.653Z,8.90
2022-12-26T03:19:58.439Z,8.77
2022-12-26T03:25:23.008Z,8.50
2022-12-26T03:30:43.835Z,7.63
2022-12-26T03:35:48.735Z,7.00
2022-12-26T03:41:14.987Z,8.13
2022-12-26T03:46:42.542Z,8.03
2022-12-26T03:52:24.880Z,8.90
2022-12-26T03:57:53.346Z,8.43
2022-12-26T04:03:20.294Z,7.90
2022-12-26T04:08:47.273Z,9.20
2022-12-26T04:14:15.578Z,8.37
2022-12-26T04:19:38.055Z,7.67
2022-12-26T04:25:09.144Z,8.37
2022-12-26T04:30:30.445Z,8.43
2022-12-26T04:35:55.924Z,8.40
2022-12-26T04:41:20.518Z,7.00
2022-12-26T04:46:26.120Z,8.40
2022-12-26T04:51:29.750Z,7.17
2022-12-26T04:56:34.636Z,23.60
2022-12-26T05:01:55.462Z,16.37
2022-12-26T05:07:17.347Z,9.50
2022-12-26T05:12:22.491Z,8.67
2022-12-26T05:17:43.426Z,8.17
2022-12-26T05:23:06.314Z,7.87
2022-12-26T05:28:29.920Z,7.83
2022-12-26T05:33:50.771Z,8.40
2022-12-26T05:38:56.271Z,8.17
2022-12-26T05:44:01.221Z,8.23
2022-12-26T05:49:05.740Z,8.27
2022-12-26T05:54:09.754Z,7.33
2022-12-26T05:59:14.741Z,7.07
2022-12-26T06:04:18.489Z,6.90
2022-12-26T06:09:21.942Z,6.83
2022-12-26T06:14:26.840Z,7.57
2022-12-26T06:19:30.287Z,8.33
2022-12-26T06:24:33.820Z,8.23
2022-12-26T06:29:38.809Z,8.40
2022-12-26T06:34:42.305Z,8.07
2022-12-26T06:39:45.773Z,8.47
2022-12-26T06:44:50.622Z,7.80
2022-12-26T06:49:54.027Z,9.13
2022-12-26T06:54:58.906Z,9.07
2022-12-26T07:00:04.582Z,8.37
2022-12-26T07:05:09.132Z,8.10
2022-12-26T07:10:14.160Z,9.27
2022-12-26T07:15:19.024Z,8.23
2022-12-26T07:20:22.512Z,8.53
2022-12-26T07:25:25.961Z,7.97
2022-12-26T07:30:31.098Z,7.73
2022-12-26T07:35:34.804Z,8.70
2022-12-26T07:40:38.660Z,8.10
2022-12-26T07:45:45.974Z,7.60
2022-12-26T07:50:49.834Z,8.87
2022-12-26T07:55:53.204Z,8.73
2022-12-26T08:00:58.037Z,8.67
2022-12-26T08:06:01.759Z,8.17
2022-12-26T08:11:06.839Z,8.40
2022-12-26T08:16:14.556Z,7.67
2022-12-26T08:21:18.113Z,8.47
2022-12-26T08:26:27.571Z,7.93
2022-12-26T08:31:32.700Z,7.60
2022-12-26T08:36:36.385Z,7.80
2022-12-26T08:41:40.041Z,6.70
2022-12-26T08:46:45.314Z,8.03
2022-12-26T08:51:49.004Z,5.77
2022-12-26T08:56:52.465Z,8.20
2022-12-26T09:01:57.489Z,8.03
2022-12-26T09:07:01.038Z,7.67
2022-12-26T09:12:04.565Z,6.73
2022-12-26T09:17:09.492Z,5.10
2022-12-26T09:22:35.062Z,4.80
2022-12-26T09:27:38.837Z,5.03
2022-12-26T09:32:43.678Z,4.67
2022-12-26T09:37:47.494Z,5.90
2022-12-26T09:43:02.081Z,6.47
2022-12-26T09:48:15.369Z,6.17
2022-12-26T09:53:25.337Z,5.60
2022-12-26T09:58:31.682Z,7.47
2022-12-26T10:03:43.096Z,6.63
2022-12-26T10:09:10.329Z,5.30
2022-12-26T10:14:22.254Z,4.00
2022-12-26T10:19:41.384Z,3.80
2022-12-26T10:24:46.161Z,3.47
2022-12-26T10:29:53.456Z,3.00
2022-12-26T10:34:59.567Z,2.60
2022-12-26T10:40:22.636Z,2.10
2022-12-26T10:45:38.187Z,2.30
2022-12-26T10:50:47.963Z,2.70
2022-12-26T10:55:51.823Z,3.00
2022-12-26T11:00:55.263Z,2.30
2022-12-26T11:06:07.917Z,2.43
2022-12-26T11:11:15.543Z,2.23
2022-12-26T11:16:26.953Z,2.60
2022-12-26T11:21:33.157Z,2.80
2022-12-26T11:26:37.498Z,2.17
2022-12-26T11:31:43.335Z,2.07
2022-12-26T11:36:51.050Z,2.10
2022-12-26T11:41:55.902Z,2.30
2022-12-26T11:47:03.072Z,2.23
2022-12-26T11:52:39.690Z,2.03
2022-12-26T11:57:43.136Z,2.70
2022-12-26T12:02:47.286Z,2.10
2022-12-26T12:08:22.221Z,2.60
2022-12-26T12:13:47.034Z,3.10
2022-12-26T12:18:58.788Z,3.20
2022-12-26T12:24:30.156Z,3.43
2022-12-26T12:30:08.620Z,3.80
2022-12-26T12:35:33.448Z,3.73
2022-12-26T12:40:47.469Z,2.93
2022-12-26T12:46:01.820Z,3.57
2022-12-26T12:51:15.330Z,3.60
2022-12-26T12:56:29.433Z,3.40
2022-12-26T13:01:37.422Z,3.67
2022-12-26T13:06:45.261Z,3.30
2022-12-26T13:11:54.887Z,2.83
2022-12-26T13:17:02.599Z,2.80
2022-12-26T13:22:16.115Z,3.10
2022-12-26T13:27:25.849Z,2.67
2022-12-26T13:32:32.004Z,3.43
2022-12-26T13:37:57.609Z,4.10
2022-12-26T13:43:30.491Z,3.30
2022-12-26T13:49:27.572Z,3.60
2022-12-26T13:54:32.105Z,2.87
2022-12-26T13:59:42.181Z,2.90
2022-12-26T14:05:10.934Z,3.03
2022-12-26T14:10:19.721Z,2.80
2022-12-26T14:15:58.586Z,3.63
2022-12-26T14:21:25.316Z,2.70
2022-12-26T14:26:40.039Z,3.03
2022-12-26T14:31:53.228Z,2.80
2022-12-26T14:37:03.431Z,3.33
2022-12-26T14:42:42.269Z,3.00
2022-12-26T14:47:50.053Z,4.20
2022-12-26T14:52:53.667Z,5.07
2022-12-26T14:57:57.639Z,3.07
2022-12-26T15:03:32.545Z,4.40
2022-12-26T15:08:51.675Z,3.93
2022-12-26T15:14:37.545Z,5.90
2022-12-26T15:20:14.548Z,3.67
2022-12-26T15:25:44.968Z,3.40
2022-12-26T15:31:02.552Z,3.50
2022-12-26T15:36:08.958Z,3.87
2022-12-26T15:41:18.899Z,4.07
2022-12-26T15:46:25.856Z,3.73
2022-12-26T15:51:42.773Z,4.27
2022-12-26T15:57:05.711Z,5.00
2022-12-26T16:02:14.094Z,4.93
2022-12-26T16:07:29.892Z,4.80
2022-12-26T16:12:38.604Z,5.53
2022-12-26T16:17:43.129Z,6.13
2022-12-26T16:22:47.831Z,6.97
2022-12-26T16:27:55.351Z,7.37
2022-12-26T16:33:03.884Z,8.10
2022-12-26T16:38:13.711Z,8.77
2022-12-26T16:43:29.687Z,8.77
2022-12-26T16:48:35.281Z,8.80
2022-12-26T16:53:46.065Z,8.90
2022-12-26T16:58:58.684Z,9.87
2022-12-26T17:04:08.255Z,9.53
2022-12-26T17:09:17.143Z,9.83
2022-12-26T17:14:26.515Z,12.50
2022-12-26T17:19:31.840Z,12.83
2022-12-26T17:24:35.408Z,11.80
2022-12-26T17:29:55.720Z,11.83
2022-12-26T17:35:02.743Z,11.90
2022-12-26T17:40:20.337Z,12.50
2022-12-26T17:45:27.642Z,13.50
2022-12-26T17:50:33.610Z,14.40
2022-12-26T17:55:37.616Z,13.43
2022-12-26T18:00:46.774Z,13.33
2022-12-26T18:05:52.548Z,13.77
2022-12-26T18:10:56.396Z,14.83
2022-12-26T18:16:01.850Z,14.73
2022-12-26T18:21:07.490Z,15.50
2022-12-26T18:26:18.123Z,16.20
2022-12-26T18:31:23.364Z,16.93
2022-12-26T18:36:32.657Z,16.30
2022-12-26T18:41:36.590Z,16.20
2022-12-26T18:46:41.585Z,16.93
2022-12-26T18:51:45.542Z,16.37
2022-12-26T18:56:51.199Z,16.03
2022-12-26T19:01:56.349Z,16.87
2022-12-26T19:06:59.906Z,17.57
2022-12-26T19:12:03.801Z,17.70
2022-12-26T19:17:09.770Z,16.77
2022-12-26T19:22:13.540Z,16.80
2022-12-26T19:27:17.079Z,17.03
2022-12-26T19:32:22.302Z,18.30
2022-12-26T19:37:26.371Z,18.87
2022-12-26T19:42:29.983Z,18.53
2022-12-26T19:47:35.369Z,17.03
2022-12-26T19:52:41.156Z,17.80
2022-12-26T19:57:44.898Z,16.73
2022-12-26T20:02:49.845Z,17.57
2022-12-26T20:07:53.619Z,16.30
2022-12-26T20:12:57.110Z,15.30
2022-12-26T20:18:02.079Z,16.37
2022-12-26T20:23:05.537Z,15.40
2022-12-26T20:28:09.129Z,15.73
2022-12-26T20:33:14.263Z,14.23
2022-12-26T20:38:18.081Z,15.57
2022-12-26T20:43:21.960Z,15.60
2022-12-26T20:48:26.863Z,15.07
2022-12-26T20:53:30.748Z,15.17
2022-12-26T20:58:36.148Z,14.70
2022-12-26T21:03:41.597Z,15.50
2022-12-26T21:08:46.814Z,15.93
2022-12-26T21:13:51.130Z,15.97
2022-12-26T21:18:56.406Z,14.70
2022-12-26T21:24:02.398Z,15.57
2022-12-26T21:29:07.850Z,15.10
2022-12-26T21:34:18.896Z,15.17
2022-12-26T21:39:22.330Z,14.77
2022-12-26T21:44:25.769Z,14.83
2022-12-26T21:49:30.727Z,14.13
2022-12-26T21:54:52.083Z,14.20
2022-12-26T21:59:59.164Z,13.83
2022-12-26T22:05:04.903Z,13.33
2022-12-26T22:10:29.832Z,12.43
2022-12-26T22:15:50.662Z,12.60
2022-12-26T22:20:55.596Z,12.33
2022-12-26T22:25:59.329Z,11.57
2022-12-26T22:31:03.394Z,12.30
2022-12-26T22:36:10.083Z,12.63
2022-12-26T22:41:13.436Z,12.53
2022-12-26T22:46:16.899Z,12.63
2022-12-26T22:51:24.007Z,12.00
2022-12-26T22:56:28.156Z,11.90
2022-12-26T23:01:32.206Z,10.90
2022-12-26T23:06:39.965Z,11.07
2022-12-26T23:12:03.969Z,10.43
2022-12-26T23:17:09.596Z,9.50
2022-12-26T23:22:14.917Z,10.50
2022-12-26T23:27:35.984Z,9.60
2022-12-26T23:32:40.997Z,10.30
2022-12-26T23:37:45.781Z,9.97
2022-12-26T23:42:50.519Z,10.53
2022-12-26T23:47:53.930Z,10.33
2022-12-26T23:52:58.749Z,10.50
2022-12-26T23:58:02.216Z,10.60
